Time;durP1;ratioP1;P1;durP2;ratioP2;P2;SDS_P1;SDS_P2;PMS_P1;PMS_P2;Temp;Humidity;BMP_temperature;BMP_pressure;BME280_temperature;BME280_humidity;BME280_pressure;Samples;Min_cycle;Max_cycle;Signal;HPM_P1;HPM_P2
2021/05/24 00:01:15;;;;;;;6.72;2.50;;;7.80;99.90;;;;;;5029862;28;20455;-69
2021/05/24 00:03:40;;;;;;;4.18;2.40;;;7.80;99.90;;;;;;5032324;28;20033;-68
2021/05/24 00:06:06;;;;;;;6.40;2.63;;;7.80;99.90;;;;;;5038937;28;20034;-69
2021/05/24 00:08:32;;;;;;;5.07;2.50;;;7.80;99.90;;;;;;5034284;28;20026;-69
2021/05/24 00:10:58;;;;;;;6.13;2.60;;;7.70;99.90;;;;;;5039950;28;20045;-71
2021/05/24 00:13:24;;;;;;;4.32;2.25;;;7.70;99.90;;;;;;5041950;28;20467;-69
2021/05/24 00:15:56;;;;;;;5.35;2.33;;;7.70;99.90;;;;;;5049122;28;20659;-68
2021/05/24 00:18:22;;;;;;;4.05;2.33;;;7.50;99.90;;;;;;5041045;28;20100;-73
2021/05/24 00:20:51;;;;;;;5.97;2.40;;;7.90;99.90;;;;;;5049040;28;20151;-68
2021/05/24 00:23:17;;;;;;;5.90;2.75;;;7.90;99.90;;;;;;5051271;28;20041;-70
2021/05/24 00:25:43;;;;;;;3.95;2.33;;;7.80;99.90;;;;;;5046516;28;20037;-68
2021/05/24 00:28:13;;;;;;;5.88;2.60;;;7.60;99.90;;;;;;5045353;28;20033;-69
2021/05/24 00:30:40;;;;;;;5.35;2.35;;;7.60;99.90;;;;;;5040097;28;20029;-69
2021/05/24 00:33:06;;;;;;;7.05;2.40;;;7.60;99.90;;;;;;5034423;28;20079;-69
2021/05/24 00:35:32;;;;;;;6.97;2.65;;;7.60;99.90;;;;;;5043798;28;20029;-69
2021/05/24 00:37:59;;;;;;;5.50;2.67;;;7.50;99.90;;;;;;5032660;28;20033;-70
2021/05/24 00:40:25;;;;;;;2.97;2.00;;;7.50;99.90;;;;;;5039290;28;20111;-70
2021/05/24 00:42:50;;;;;;;6.18;2.40;;;7.50;99.90;;;;;;5047406;28;20528;-70
2021/05/24 00:45:17;;;;;;;2.63;1.63;;;7.50;99.90;;;;;;5032360;28;20033;-69
2021/05/24 00:47:43;;;;;;;3.50;1.73;;;7.60;99.90;;;;;;5034060;28;20060;-69
2021/05/24 00:50:11;;;;;;;2.35;1.35;;;7.50;99.90;;;;;;5035408;28;20052;-69
2021/05/24 00:52:37;;;;;;;1.40;1.30;;;7.60;99.90;;;;;;5050766;28;20021;-72
2021/05/24 00:55:05;;;;;;;3.22;1.77;;;7.60;99.90;;;;;;5041567;28;20037;-69
2021/05/24 00:57:31;;;;;;;3.15;1.63;;;7.70;99.90;;;;;;5031241;28;20133;-69
2021/05/24 00:59:57;;;;;;;3.58;1.20;;;7.60;99.90;;;;;;5041393;28;20065;-69
2021/05/24 01:02:23;;;;;;;2.90;1.55;;;7.60;99.90;;;;;;5039138;28;20509;-73
2021/05/24 01:04:50;;;;;;;3.97;2.05;;;7.60;99.90;;;;;;5056866;28;20029;-69
2021/05/24 01:07:16;;;;;;;3.28;1.38;;;7.50;99.90;;;;;;5039447;28;20055;-69
2021/05/24 01:09:42;;;;;;;3.03;1.50;;;7.50;99.90;;;;;;5020547;28;21404;-69
2021/05/24 01:12:09;;;;;;;1.70;1.30;;;7.50;99.90;;;;;;5051228;28;20041;-69
2021/05/24 01:14:36;;;;;;;2.58;1.55;;;7.50;99.90;;;;;;5036940;28;20057;-69
2021/05/24 01:17:02;;;;;;;1.55;1.17;;;7.50;99.90;;;;;;5051182;28;20122;-68
2021/05/24 01:19:28;;;;;;;3.55;1.50;;;7.50;99.90;;;;;;5040298;28;20048;-69
2021/05/24 01:21:53;;;;;;;2.53;1.20;;;7.50;99.90;;;;;;5038061;28;20033;-69
2021/05/24 01:24:20;;;;;;;5.03;1.45;;;7.50;99.90;;;;;;5043085;28;20036;-72
2021/05/24 01:26:46;;;;;;;1.73;1.20;;;7.50;99.90;;;;;;5039895;28;20068;-69
2021/05/24 01:29:12;;;;;;;3.10;1.52;;;7.50;99.90;;;;;;5039085;28;20546;-69
2021/05/24 01:31:38;;;;;;;2.80;1.55;;;7.50;99.90;;;;;;5038396;28;20040;-69
2021/05/24 01:34:04;;;;;;;1.77;1.50;;;7.50;99.90;;;;;;5024852;28;20046;-69
2021/05/24 01:36:30;;;;;;;5.00;1.35;;;7.50;99.90;;;;;;5039353;28;20120;-70
2021/05/24 01:38:56;;;;;;;1.90;1.40;;;7.50;99.90;;;;;;5041579;28;20104;-69
2021/05/24 01:41:22;;;;;;;3.53;1.58;;;7.40;99.90;;;;;;5040780;28;20029;-73
2021/05/24 01:43:48;;;;;;;4.05;1.60;;;7.40;99.90;;;;;;5040327;28;20066;-70
2021/05/24 01:46:14;;;;;;;3.17;1.13;;;7.40;99.90;;;;;;5041985;28;20021;-69
2021/05/24 01:48:41;;;;;;;3.30;1.58;;;7.40;99.90;;;;;;5040960;28;20659;-69
2021/05/24 01:51:08;;;;;;;3.28;1.27;;;7.40;99.90;;;;;;5041153;28;20086;-70
2021/05/24 01:53:36;;;;;;;3.65;1.85;;;7.40;99.90;;;;;;5041334;28;20029;-70
2021/05/24 01:56:04;;;;;;;2.08;1.40;;;7.40;99.90;;;;;;5041890;28;20064;-68
2021/05/24 01:58:30;;;;;;;4.38;1.38;;;7.40;99.90;;;;;;5039254;28;20067;-69
2021/05/24 02:01:10;;;;;;;2.55;1.20;;;7.30;99.90;;;;;;5041399;28;20055;-69
2021/05/24 02:03:36;;;;;;;2.28;1.33;;;7.30;99.90;;;;;;5042574;28;20026;-69
2021/05/24 02:06:05;;;;;;;2.45;1.23;;;7.30;99.90;;;;;;5043959;28;20520;-69
2021/05/24 02:08:32;;;;;;;3.83;1.48;;;7.30;99.90;;;;;;5043679;28;20104;-69
2021/05/24 02:10:58;;;;;;;2.20;1.58;;;7.20;99.90;;;;;;5044896;28;20041;-69
2021/05/24 02:13:27;;;;;;;2.25;1.20;;;7.20;99.90;;;;;;5043190;28;20021;-73
2021/05/24 02:15:53;;;;;;;3.47;1.40;;;7.20;99.90;;;;;;5042198;28;20494;-69
2021/05/24 02:18:19;;;;;;;3.28;1.35;;;7.10;99.90;;;;;;5035973;28;20034;-68
2021/05/24 02:20:45;;;;;;;2.20;1.10;;;7.10;99.90;;;;;;5040463;28;20190;-68
2021/05/24 02:23:11;;;;;;;1.67;1.23;;;7.10;99.90;;;;;;5040718;28;20033;-69
2021/05/24 02:25:37;;;;;;;1.77;1.10;;;7.10;99.90;;;;;;5048293;28;20025;-69
2021/05/24 02:28:04;;;;;;;2.22;1.13;;;7.00;99.90;;;;;;5052356;28;20485;-69
2021/05/24 02:30:30;;;;;;;2.67;1.50;;;7.00;99.90;;;;;;5052004;28;20036;-70
2021/05/24 02:32:56;;;;;;;2.38;1.38;;;7.00;99.90;;;;;;5037955;28;20037;-69
2021/05/24 02:35:24;;;;;;;4.05;1.88;;;6.90;99.90;;;;;;5043798;28;20481;-73
2021/05/24 02:37:50;;;;;;;3.72;1.55;;;6.90;99.90;;;;;;5041524;28;20025;-68
2021/05/24 02:40:18;;;;;;;3.03;1.50;;;6.90;99.90;;;;;;5051850;28;20087;-68
2021/05/24 02:42:45;;;;;;;1.52;1.17;;;6.90;99.90;;;;;;5048190;28;20125;-69
2021/05/24 02:45:13;;;;;;;3.75;1.50;;;6.90;99.90;;;;;;5045368;28;20026;-69
2021/05/24 02:47:38;;;;;;;2.40;1.38;;;6.90;99.90;;;;;;5027776;28;20025;-68
2021/05/24 02:50:07;;;;;;;2.85;1.52;;;6.90;99.90;;;;;;5044033;28;20082;-68
2021/05/24 02:52:33;;;;;;;1.67;1.35;;;6.90;99.90;;;;;;5043179;28;20462;-69
2021/05/24 02:54:58;;;;;;;2.40;1.98;;;7.00;99.90;;;;;;5039651;28;20035;-69
2021/05/24 02:57:24;;;;;;;3.88;1.85;;;7.00;99.90;;;;;;5035769;28;20049;-73
2021/05/24 02:59:50;;;;;;;5.05;1.45;;;7.00;99.90;;;;;;5036839;28;20037;-68
2021/05/24 03:02:23;;;;;;;2.97;1.60;;;7.10;99.90;;;;;;5039231;28;20033;-68
2021/05/24 03:04:48;;;;;;;2.85;1.60;;;7.10;99.90;;;;;;5035531;28;20099;-69
2021/05/24 03:07:14;;;;;;;3.22;1.77;;;7.10;99.90;;;;;;5042910;28;20462;-68
2021/05/24 03:09:40;;;;;;;1.83;1.10;;;7.10;99.90;;;;;;5025614;28;20033;-68
2021/05/24 03:12:06;;;;;;;2.60;1.52;;;7.10;99.90;;;;;;5021313;28;20124;-69
2021/05/24 03:14:31;;;;;;;2.25;1.50;;;7.00;99.90;;;;;;5032949;28;20052;-68
2021/05/24 03:16:57;;;;;;;2.13;1.38;;;7.00;99.90;;;;;;5022962;28;20474;-69
2021/05/24 03:19:23;;;;;;;3.85;1.80;;;7.00;99.90;;;;;;5033016;28;20044;-73
2021/05/24 03:21:48;;;;;;;3.20;1.77;;;7.00;99.90;;;;;;5038444;28;20036;-68
2021/05/24 03:24:14;;;;;;;1.98;1.48;;;7.00;99.90;;;;;;5040316;28;20036;-68
2021/05/24 03:26:40;;;;;;;3.63;1.60;;;7.00;99.90;;;;;;5041800;28;20021;-68
2021/05/24 03:29:05;;;;;;;2.97;1.90;;;7.00;99.90;;;;;;5039339;28;20463;-68
2021/05/24 03:31:31;;;;;;;3.47;2.03;;;7.10;99.90;;;;;;5040035;28;20034;-69
2021/05/24 03:33:57;;;;;;;2.25;1.60;;;7.10;99.90;;;;;;5037070;28;20029;-69
2021/05/24 03:36:23;;;;;;;2.63;1.52;;;7.10;99.90;;;;;;5042517;28;20494;-73
2021/05/24 03:38:49;;;;;;;2.35;1.60;;;7.10;99.90;;;;;;5045783;28;20466;-68
2021/05/24 03:41:15;;;;;;;2.83;1.60;;;7.10;99.90;;;;;;5051882;28;20091;-68
2021/05/24 03:43:43;;;;;;;1.90;1.52;;;7.10;99.90;;;;;;5039461;28;20477;-68
2021/05/24 03:46:09;;;;;;;2.80;1.83;;;7.10;99.90;;;;;;5040177;28;20042;-68
2021/05/24 03:48:38;;;;;;;3.05;1.70;;;7.10;99.90;;;;;;5038442;28;20045;-69
2021/05/24 03:51:08;;;;;;;1.48;1.13;;;7.10;99.90;;;;;;5033138;28;20087;-68
2021/05/24 03:53:33;;;;;;;4.60;1.50;;;7.00;99.90;;;;;;5024092;28;20032;-69
2021/05/24 03:55:59;;;;;;;4.10;1.40;;;7.00;99.90;;;;;;5043322;28;20104;-69
2021/05/24 03:58:25;;;;;;;2.95;1.60;;;7.00;99.90;;;;;;5052096;28;20045;-73
2021/05/24 04:00:50;;;;;;;2.53;1.55;;;7.00;99.90;;;;;;5048535;28;20036;-70
2021/05/24 04:03:16;;;;;;;3.15;1.85;;;7.00;99.90;;;;;;5049261;28;20025;-69
2021/05/24 04:05:44;;;;;;;2.80;1.60;;;7.00;99.90;;;;;;5049371;28;20035;-70
2021/05/24 04:08:10;;;;;;;3.88;1.58;;;7.10;99.90;;;;;;5046952;28;20045;-70
2021/05/24 04:10:52;;;;;;;4.05;1.92;;;7.10;99.90;;;;;;5034695;28;20025;-71
2021/05/24 04:13:17;;;;;;;2.65;1.58;;;7.10;99.90;;;;;;5040900;28;20033;-68
2021/05/24 04:15:46;;;;;;;3.58;1.90;;;7.20;99.90;;;;;;5038607;28;20242;-68
2021/05/24 04:18:16;;;;;;;2.47;1.60;;;7.20;99.90;;;;;;5017364;28;20029;-67
2021/05/24 04:20:44;;;;;;;2.60;1.50;;;7.30;99.90;;;;;;5045129;28;20017;-69
2021/05/24 04:23:09;;;;;;;3.70;1.48;;;7.30;99.90;;;;;;5051621;28;20033;-69
2021/05/24 04:25:35;;;;;;;6.38;1.55;;;7.30;99.90;;;;;;5036137;28;20029;-68
2021/05/24 04:28:01;;;;;;;2.17;1.40;;;7.40;99.90;;;;;;5034820;28;20129;-68
2021/05/24 04:30:27;;;;;;;5.38;1.73;;;7.40;99.90;;;;;;5042860;28;20123;-72
2021/05/24 04:32:52;;;;;;;2.13;1.50;;;7.40;99.90;;;;;;5046460;28;20048;-69
2021/05/24 04:35:18;;;;;;;3.90;1.65;;;7.40;99.90;;;;;;5050393;28;20025;-68
2021/05/24 04:37:44;;;;;;;4.20;1.40;;;7.50;99.90;;;;;;5046034;28;20025;-69
2021/05/24 04:40:11;;;;;;;3.17;1.70;;;7.50;99.90;;;;;;5045447;28;20074;-70
2021/05/24 04:42:36;;;;;;;4.82;1.80;;;7.60;99.90;;;;;;5049490;28;20482;-67
2021/05/24 04:45:05;;;;;;;3.78;1.23;;;7.70;99.90;;;;;;5045548;28;20033;-70
2021/05/24 04:47:31;;;;;;;3.47;1.58;;;7.70;99.90;;;;;;5044175;28;20040;-70
2021/05/24 04:49:57;;;;;;;3.08;1.42;;;7.80;99.90;;;;;;5050739;28;20029;-69
2021/05/24 04:52:23;;;;;;;1.98;1.25;;;7.80;99.90;;;;;;5043520;28;20037;-69
2021/05/24 04:54:48;;;;;;;1.83;1.40;;;7.80;99.90;;;;;;5044753;28;20048;-70
2021/05/24 04:57:15;;;;;;;3.50;1.33;;;7.90;99.90;;;;;;5043817;28;20045;-70
2021/05/24 04:59:41;;;;;;;4.00;1.60;;;7.90;99.90;;;;;;5045141;28;20056;-72
2021/05/24 05:02:07;;;;;;;2.75;1.25;;;8.00;99.90;;;;;;5035451;28;20584;-70
2021/05/24 05:04:33;;;;;;;3.42;1.50;;;8.00;99.90;;;;;;5042075;28;20029;-72
2021/05/24 05:06:58;;;;;;;2.50;1.60;;;8.10;99.90;;;;;;5042297;28;20033;-70
2021/05/24 05:09:27;;;;;;;2.83;2.22;;;8.20;99.90;;;;;;5040440;28;20083;-70
2021/05/24 05:11:55;;;;;;;2.20;1.55;;;8.20;99.90;;;;;;5036242;28;20036;-72
2021/05/24 05:14:22;;;;;;;2.85;1.48;;;8.30;99.90;;;;;;5043029;28;20024;-73
2021/05/24 05:16:47;;;;;;;2.03;1.10;;;8.30;99.90;;;;;;5033926;28;20037;-71
2021/05/24 05:19:13;;;;;;;2.15;1.20;;;8.40;99.90;;;;;;5035122;28;20075;-71
2021/05/24 05:21:39;;;;;;;1.73;1.35;;;8.50;99.90;;;;;;5016978;28;20041;-72
2021/05/24 05:24:05;;;;;;;4.10;1.45;;;8.60;99.90;;;;;;5034332;28;20434;-72
2021/05/24 05:26:31;;;;;;;2.90;1.23;;;8.70;99.90;;;;;;5041149;28;20059;-74
2021/05/24 05:28:57;;;;;;;1.95;1.40;;;8.80;99.90;;;;;;5049867;28;20052;-70
2021/05/24 05:31:24;;;;;;;1.58;1.10;;;8.90;99.90;;;;;;5041743;28;20044;-70
2021/05/24 05:33:50;;;;;;;1.40;1.02;;;9.00;99.90;;;;;;5044672;28;20025;-72
2021/05/24 05:36:15;;;;;;;3.67;1.33;;;9.00;99.90;;;;;;5047398;28;20052;-72
2021/05/24 05:38:41;;;;;;;1.23;1.08;;;9.10;99.90;;;;;;5053145;28;20446;-73
2021/05/24 05:41:07;;;;;;;3.83;1.55;;;9.20;99.90;;;;;;5053038;28;20033;-71
2021/05/24 05:43:32;;;;;;;3.03;1.30;;;9.20;99.90;;;;;;5053361;28;20108;-74
2021/05/24 05:45:58;;;;;;;3.13;1.55;;;9.40;99.90;;;;;;5060700;28;20466;-74
2021/05/24 05:48:24;;;;;;;2.90;1.70;;;9.50;99.90;;;;;;5069878;28;20039;-73
2021/05/24 05:50:50;;;;;;;1.65;1.35;;;9.60;99.90;;;;;;5057222;28;20098;-73
2021/05/24 05:53:15;;;;;;;2.10;1.40;;;9.70;99.90;;;;;;5054410;28;20053;-73
2021/05/24 05:55:41;;;;;;;6.10;2.40;;;9.70;99.90;;;;;;5051965;28;20075;-73
2021/05/24 05:58:07;;;;;;;4.95;2.72;;;9.80;99.90;;;;;;5044762;28;20061;-72
2021/05/24 06:00:33;;;;;;;3.60;2.60;;;9.90;99.90;;;;;;5045981;28;20031;-74
2021/05/24 06:02:58;;;;;;;3.80;2.75;;;9.90;99.90;;;;;;5050940;28;20029;-72
2021/05/24 06:05:24;;;;;;;5.03;2.65;;;9.90;99.40;;;;;;5041979;28;20060;-72
2021/05/24 06:07:50;;;;;;;8.23;2.88;;;10.00;99.10;;;;;;5045636;28;20104;-72
2021/05/24 06:10:16;;;;;;;5.72;3.00;;;10.10;98.40;;;;;;5043723;28;20120;-72
2021/05/24 06:12:43;;;;;;;5.95;2.72;;;10.10;97.90;;;;;;5016062;28;20045;-71
2021/05/24 06:15:10;;;;;;;3.58;2.47;;;10.20;97.70;;;;;;5052813;28;20108;-71
2021/05/24 06:17:36;;;;;;;5.32;2.75;;;10.20;97.10;;;;;;5051080;28;20017;-71
2021/05/24 06:20:02;;;;;;;5.05;2.90;;;10.20;97.40;;;;;;5034904;28;20056;-73
2021/05/24 06:22:28;;;;;;;4.25;2.47;;;10.30;97.30;;;;;;5031140;28;20029;-71
2021/05/24 06:24:53;;;;;;;4.55;2.42;;;10.40;96.90;;;;;;5046607;28;20413;-73
2021/05/24 06:27:19;;;;;;;7.05;2.55;;;10.50;96.80;;;;;;5050387;28;20032;-74
2021/05/24 06:29:45;;;;;;;3.50;2.80;;;10.60;97.10;;;;;;5045862;28;20390;-71
2021/05/24 06:32:11;;;;;;;4.93;2.50;;;10.80;95.80;;;;;;5030541;28;20037;-70
2021/05/24 06:34:36;;;;;;;4.70;2.97;;;10.90;95.40;;;;;;5030982;28;20420;-70
2021/05/24 06:37:02;;;;;;;5.53;2.42;;;11.00;94.00;;;;;;5043756;28;20458;-70
2021/05/24 06:39:28;;;;;;;5.82;2.80;;;11.10;93.30;;;;;;5026663;28;20025;-70
2021/05/24 06:41:53;;;;;;;3.08;2.63;;;11.20;92.80;;;;;;5040009;28;20095;-78
2021/05/24 06:44:19;;;;;;;5.38;3.17;;;11.20;92.70;;;;;;5042749;28;20022;-69
2021/05/24 06:46:45;;;;;;;4.68;3.05;;;11.30;92.00;;;;;;5047014;28;20021;-72
2021/05/24 06:49:11;;;;;;;4.20;2.72;;;11.40;91.50;;;;;;5043324;28;20044;-74
2021/05/24 06:51:37;;;;;;;5.20;2.22;;;11.60;91.90;;;;;;5023130;28;20044;-72
2021/05/24 06:54:03;;;;;;;5.03;2.33;;;11.80;92.20;;;;;;5048039;28;20029;-72
2021/05/24 06:56:29;;;;;;;8.15;3.08;;;12.20;89.20;;;;;;5042573;28;20032;-70
2021/05/24 06:58:54;;;;;;;4.43;1.90;;;12.50;87.10;;;;;;5040827;28;20029;-73
2021/05/24 07:01:20;;;;;;;6.50;2.90;;;12.70;85.20;;;;;;5048687;28;20025;-70
2021/05/24 07:03:46;;;;;;;4.57;2.13;;;13.00;82.80;;;;;;5040010;28;20391;-70
2021/05/24 07:06:11;;;;;;;2.45;1.98;;;13.20;80.00;;;;;;5048911;28;20078;-73
2021/05/24 07:08:37;;;;;;;4.43;2.30;;;13.30;79.00;;;;;;5044527;28;20079;-73
2021/05/24 07:11:06;;;;;;;4.28;2.40;;;13.50;78.60;;;;;;5050548;28;20025;-75
2021/05/24 07:13:32;;;;;;;5.15;2.33;;;13.60;77.50;;;;;;5026113;28;20175;-72
2021/05/24 07:16:01;;;;;;;3.58;2.17;;;13.60;76.40;;;;;;5050713;28;20112;-70
2021/05/24 07:18:27;;;;;;;3.58;2.03;;;13.80;76.60;;;;;;5041718;28;20040;-73
2021/05/24 07:20:52;;;;;;;3.97;2.50;;;14.10;75.50;;;;;;5049155;28;20025;-71
2021/05/24 07:23:18;;;;;;;4.50;2.40;;;14.20;74.10;;;;;;5055999;28;20040;-71
2021/05/24 07:25:44;;;;;;;5.45;1.95;;;14.30;72.80;;;;;;5047713;28;20108;-70
2021/05/24 07:28:10;;;;;;;3.47;2.40;;;14.10;73.40;;;;;;5049280;28;20037;-70
2021/05/24 07:30:35;;;;;;;3.50;2.15;;;14.00;74.20;;;;;;5050995;28;20033;-75
2021/05/24 07:33:02;;;;;;;3.63;2.33;;;13.90;73.80;;;;;;5048675;28;20470;-71
2021/05/24 07:35:29;;;;;;;4.15;2.47;;;13.80;74.20;;;;;;5038733;28;20025;-71
2021/05/24 07:37:54;;;;;;;4.82;2.00;;;13.80;74.90;;;;;;5049744;28;20096;-72
2021/05/24 07:40:20;;;;;;;3.50;1.90;;;13.80;75.20;;;;;;5052596;28;20068;-72
2021/05/24 07:42:46;;;;;;;2.45;2.08;;;13.90;74.90;;;;;;5047052;28;20029;-71
2021/05/24 07:45:13;;;;;;;4.22;1.92;;;14.00;74.30;;;;;;5044148;28;20424;-72
2021/05/24 07:47:39;;;;;;;8.13;1.83;;;14.00;74.40;;;;;;5028013;28;20021;-70
2021/05/24 07:50:05;;;;;;;2.85;1.60;;;14.10;74.60;;;;;;5047413;28;20022;-71
2021/05/24 07:52:31;;;;;;;5.68;1.65;;;14.10;74.40;;;;;;5048417;28;20037;-70
2021/05/24 07:54:58;;;;;;;5.10;1.70;;;14.10;74.60;;;;;;5048191;28;20064;-71
2021/05/24 07:57:25;;;;;;;7.13;1.83;;;14.20;73.00;;;;;;5034216;28;20053;-72
2021/05/24 07:59:50;;;;;;;2.92;1.63;;;14.30;72.80;;;;;;5046796;28;20040;-83
2021/05/24 08:02:16;;;;;;;2.08;1.50;;;14.30;73.10;;;;;;5045535;28;20033;-71
2021/05/24 08:04:42;;;;;;;2.80;1.85;;;14.40;73.10;;;;;;5045767;28;20036;-71
2021/05/24 08:07:07;;;;;;;3.80;2.10;;;14.40;73.20;;;;;;5047701;28;20036;-71
2021/05/24 08:09:33;;;;;;;4.00;1.88;;;14.40;72.60;;;;;;5036155;28;20488;-71
2021/05/24 08:11:59;;;;;;;3.13;1.83;;;14.50;72.00;;;;;;5047672;28;20044;-72
2021/05/24 08:14:25;;;;;;;4.75;2.08;;;14.50;73.80;;;;;;5045471;28;20472;-72
2021/05/24 08:16:51;;;;;;;5.10;2.00;;;14.60;73.80;;;;;;5041885;28;20061;-72
2021/05/24 08:19:17;;;;;;;2.80;2.03;;;14.70;74.30;;;;;;5028405;28;20052;-71
2021/05/24 08:21:48;;;;;;;4.15;1.60;;;14.80;74.50;;;;;;5050022;28;20048;-76
2021/05/24 08:24:15;;;;;;;4.50;2.15;;;14.90;73.20;;;;;;5052440;28;20035;-77
2021/05/24 08:26:41;;;;;;;4.50;1.70;;;15.00;73.40;;;;;;5026108;28;20385;-74
2021/05/24 08:29:07;;;;;;;2.85;1.48;;;15.20;72.60;;;;;;5033987;28;20036;-75
2021/05/24 08:31:35;;;;;;;3.17;1.90;;;15.30;71.40;;;;;;5036122;28;20063;-86
2021/05/24 08:34:00;;;;;;;1.45;1.10;;;15.50;69.80;;;;;;5049382;28;20093;-79
2021/05/24 08:36:26;;;;;;;2.97;1.50;;;15.60;67.40;;;;;;5051327;28;20029;-76
2021/05/24 08:38:52;;;;;;;1.40;0.75;;;15.90;65.70;;;;;;5057289;28;20036;-81
2021/05/24 08:41:19;;;;;;;1.65;0.90;;;16.10;64.80;;;;;;5057617;28;20064;-78
2021/05/24 08:43:44;;;;;;;1.45;0.88;;;16.30;63.40;;;;;;5065204;28;20016;-74
2021/05/24 08:46:11;;;;;;;5.53;1.45;;;16.40;63.30;;;;;;5058846;28;20096;-72
2021/05/24 08:48:37;;;;;;;1.60;1.10;;;16.60;63.10;;;;;;5051090;28;20378;-77
2021/05/24 08:51:08;;;;;;;1.67;1.30;;;16.70;63.80;;;;;;5049121;28;20043;-73
2021/05/24 08:53:36;;;;;;;2.65;1.52;;;16.90;64.50;;;;;;5046832;28;20071;-73
2021/05/24 08:56:03;;;;;;;5.22;1.65;;;17.10;64.00;;;;;;5041971;28;20037;-71
2021/05/24 08:58:29;;;;;;;3.53;1.63;;;17.10;64.10;;;;;;5031323;28;20414;-71
2021/05/24 09:00:54;;;;;;;2.20;1.52;;;17.10;65.00;;;;;;5032008;28;20111;-72
2021/05/24 09:03:21;;;;;;;2.45;1.70;;;17.20;63.60;;;;;;5031001;28;20426;-71
2021/05/24 09:05:47;;;;;;;3.00;1.70;;;17.30;63.20;;;;;;5044666;28;20036;-72
2021/05/24 09:08:14;;;;;;;2.63;1.42;;;17.40;63.00;;;;;;5041212;28;20083;-71
2021/05/24 09:10:47;;;;;;;3.58;1.80;;;17.50;62.30;;;;;;5038533;28;20327;-73
2021/05/24 09:13:14;;;;;;;2.88;1.65;;;17.60;61.70;;;;;;5043183;28;20044;-72
2021/05/24 09:15:43;;;;;;;6.20;1.45;;;17.70;62.50;;;;;;5015451;28;20094;-74
2021/05/24 09:18:10;;;;;;;3.95;1.60;;;17.80;62.30;;;;;;5050564;28;20393;-71
2021/05/24 09:20:42;;;;;;;4.55;1.67;;;17.70;61.30;;;;;;5022786;28;20026;-73
2021/05/24 09:23:29;;;;;;;2.70;1.20;;;17.70;63.40;;;;;;5035309;28;20077;-71
2021/05/24 09:26:00;;;;;;;2.40;1.33;;;17.90;62.60;;;;;;5047918;28;20120;-71
2021/05/24 09:28:30;;;;;;;1.85;1.33;;;18.00;61.90;;;;;;5044377;28;20080;-71
2021/05/24 09:31:00;;;;;;;2.40;1.20;;;18.00;62.30;;;;;;5039445;28;20083;-72
2021/05/24 09:33:27;;;;;;;1.95;1.27;;;18.20;61.20;;;;;;5044692;28;20454;-73
2021/05/24 09:35:53;;;;;;;1.88;1.20;;;18.30;60.70;;;;;;5041096;28;20236;-72
2021/05/24 09:38:24;;;;;;;1.48;1.15;;;18.60;59.80;;;;;;5046533;28;20037;-71
2021/05/24 09:40:58;;;;;;;2.58;1.27;;;18.70;59.20;;;;;;5044381;28;20026;-72
2021/05/24 09:43:31;;;;;;;3.03;1.30;;;18.90;59.50;;;;;;5030852;28;20026;-72
2021/05/24 09:46:12;;;;;;;1.90;1.05;;;18.90;58.30;;;;;;5038588;28;20026;-71
2021/05/24 09:48:39;;;;;;;2.58;1.17;;;19.00;58.40;;;;;;5038434;28;20084;-72
2021/05/24 09:51:07;;;;;;;3.63;1.00;;;19.20;57.80;;;;;;5034528;28;20026;-72
2021/05/24 09:53:33;;;;;;;1.35;1.00;;;19.20;57.30;;;;;;5035528;28;20021;-71
2021/05/24 09:56:14;;;;;;;1.63;0.93;;;19.30;57.60;;;;;;5013670;28;20095;-71
2021/05/24 09:58:39;;;;;;;3.72;1.33;;;19.30;56.60;;;;;;5049533;28;20136;-73
2021/05/24 10:01:15;;;;;;;2.53;1.15;;;19.40;56.20;;;;;;5040438;28;20097;-72
2021/05/24 10:03:42;;;;;;;2.60;1.20;;;19.50;57.50;;;;;;5028233;28;20056;-74
2021/05/24 10:06:08;;;;;;;2.05;1.08;;;19.60;56.80;;;;;;5041796;28;20083;-72
2021/05/24 10:08:34;;;;;;;2.05;1.42;;;19.80;57.20;;;;;;5034302;28;20034;-72
2021/05/24 10:11:01;;;;;;;2.28;1.17;;;19.90;57.40;;;;;;5030409;28;20403;-72
2021/05/24 10:13:28;;;;;;;1.70;1.23;;;20.00;57.30;;;;;;5052515;28;20359;-71
2021/05/24 10:16:00;;;;;;;1.77;1.30;;;20.00;56.90;;;;;;5049388;28;20108;-71
2021/05/24 10:18:28;;;;;;;1.55;1.17;;;20.00;56.70;;;;;;5038222;28;20038;-71
2021/05/24 10:20:54;;;;;;;2.10;1.70;;;20.00;57.10;;;;;;5012580;28;20022;-72
2021/05/24 10:23:21;;;;;;;2.10;1.20;;;20.10;57.30;;;;;;5047128;28;20039;-71
2021/05/24 10:25:49;;;;;;;2.95;1.20;;;20.00;57.40;;;;;;5034559;28;20032;-71
2021/05/24 10:28:21;;;;;;;2.25;1.40;;;20.00;57.80;;;;;;5037352;28;20052;-70
2021/05/24 10:30:47;;;;;;;2.38;1.90;;;20.10;57.20;;;;;;5040074;28;20032;-71
2021/05/24 10:33:14;;;;;;;1.48;1.20;;;20.20;54.10;;;;;;5031315;28;20055;-70
2021/05/24 10:35:47;;;;;;;1.92;1.33;;;20.30;52.80;;;;;;5033798;28;20032;-71
2021/05/24 10:38:27;;;;;;;1.73;0.75;;;20.30;52.50;;;;;;5053842;28;20032;-71
2021/05/24 10:41:01;;;;;;;;;;;20.50;51.30;;;;;;5051877;28;20048;-71
2021/05/24 10:43:45;;;;;;;1.15;0.70;;;20.50;50.40;;;;;;5052813;28;19909;-71
2021/05/24 10:46:26;;;;;;;1.50;0.80;;;20.60;50.90;;;;;;5050748;28;20029;-71
2021/05/24 10:48:56;;;;;;;1.88;1.10;;;20.50;51.10;;;;;;5043463;28;20021;-71
2021/05/24 10:51:45;;;;;;;1.67;1.20;;;20.50;51.20;;;;;;5035336;28;20033;-71
2021/05/24 10:54:23;;;;;;;2.10;1.10;;;20.50;50.80;;;;;;5046945;28;20064;-73
2021/05/24 10:56:58;;;;;;;2.05;0.93;;;20.50;51.20;;;;;;5034122;28;20471;-71
2021/05/24 10:59:39;;;;;;;1.25;0.80;;;20.50;51.50;;;;;;5047907;28;20030;-71
2021/05/24 11:02:07;;;;;;;1.27;0.68;;;20.40;51.80;;;;;;5043026;28;20119;-70
2021/05/24 11:04:57;;;;;;;1.00;0.80;;;20.40;51.90;;;;;;5046969;28;20107;-71
2021/05/24 11:07:29;;;;;;;0.77;0.60;;;20.40;51.20;;;;;;5038275;28;20044;-71
2021/05/24 11:10:16;;;;;;;0.85;0.73;;;20.40;51.20;;;;;;5048224;28;20071;-72
2021/05/24 11:13:17;;;;;;;2.83;0.80;;;20.50;49.10;;;;;;5052592;28;20037;-74
2021/05/24 11:15:44;;;;;;;0.85;0.60;;;20.60;49.90;;;;;;5052125;28;20033;-74
2021/05/24 11:18:12;;;;;;;0.93;0.60;;;20.60;51.30;;;;;;5045379;28;20057;-72
2021/05/24 11:21:02;;;;;;;2.05;0.77;;;20.70;50.10;;;;;;5035247;28;20394;-71
2021/05/24 11:24:00;;;;;;;1.77;0.98;;;20.70;50.10;;;;;;5052501;28;20103;-71
2021/05/24 11:29:11;;;;;;;0.80;0.80;;;20.90;49.50;;;;;;5050676;28;20060;-70
2021/05/24 11:31:37;;;;;;;2.60;1.38;;;21.20;47.60;;;;;;5052581;28;20049;-70
2021/05/24 11:34:35;;;;;;;3.08;1.00;;;21.40;50.50;;;;;;5040471;28;20111;-70
2021/05/24 11:37:03;;;;;;;1.50;0.80;;;21.60;48.30;;;;;;5048876;28;20032;-71
2021/05/24 11:39:36;;;;;;;0.85;0.50;;;21.70;44.10;;;;;;5051791;28;20029;-70
2021/05/24 11:42:04;;;;;;;0.85;0.50;;;21.70;43.40;;;;;;5025060;28;20461;-71
2021/05/24 11:44:38;;;;;;;2.17;0.45;;;21.80;44.40;;;;;;5047629;28;20045;-70
2021/05/24 11:47:24;;;;;;;1.08;0.50;;;22.10;44.00;;;;;;5024563;28;20651;-71
2021/05/24 11:49:59;;;;;;;1.08;0.60;;;22.30;43.40;;;;;;5036951;28;20108;-70
2021/05/24 11:52:28;;;;;;;1.20;0.63;;;22.50;42.70;;;;;;5034103;28;20048;-70
2021/05/24 11:54:54;;;;;;;3.65;0.63;;;22.70;41.90;;;;;;5039878;28;20022;-71
2021/05/24 11:57:21;;;;;;;1.65;0.90;;;22.80;41.00;;;;;;5033038;28;20148;-71
2021/05/24 11:59:48;;;;;;;3.95;1.35;;;22.90;41.80;;;;;;5047577;28;20037;-73
2021/05/24 12:02:15;;;;;;;3.78;1.15;;;23.00;45.50;;;;;;5043618;28;20116;-72
2021/05/24 12:04:43;;;;;;;1.15;1.00;;;22.90;46.40;;;;;;5036484;28;20072;-71
2021/05/24 12:07:11;;;;;;;4.38;1.40;;;22.80;47.90;;;;;;5040632;28;20037;-70
2021/05/24 12:09:46;;;;;;;2.70;1.50;;;22.60;48.90;;;;;;5039819;28;20489;-72
2021/05/24 12:12:18;;;;;;;1.10;1.00;;;22.60;49.40;;;;;;5040034;28;20079;-71
2021/05/24 12:14:55;;;;;;;5.82;2.90;;;22.60;48.70;;;;;;5039039;28;20029;-73
2021/05/24 12:17:31;;;;;;;1.95;1.33;;;22.70;49.20;;;;;;5051134;28;20029;-72
2021/05/24 12:19:58;;;;;;;4.55;1.02;;;22.70;46.50;;;;;;5019518;28;20170;-71
2021/05/24 12:22:27;;;;;;;1.73;0.93;;;22.60;46.40;;;;;;5050003;28;20064;-71
2021/05/24 12:24:55;;;;;;;1.42;1.00;;;22.50;47.30;;;;;;5050136;28;20112;-71
2021/05/24 12:27:24;;;;;;;2.25;0.80;;;22.50;48.10;;;;;;5048147;28;20025;-71
2021/05/24 12:29:50;;;;;;;1.08;0.70;;;22.40;47.80;;;;;;5045081;28;20159;-71
2021/05/24 12:32:26;;;;;;;0.95;0.75;;;22.40;47.90;;;;;;5049867;28;20433;-72
2021/05/24 12:34:52;;;;;;;0.38;0.35;;;22.20;43.70;;;;;;5013325;28;20390;-71
2021/05/24 12:37:18;;;;;;;1.67;0.80;;;21.90;43.90;;;;;;5015209;28;20029;-73
2021/05/24 12:39:46;;;;;;;1.23;0.70;;;21.80;44.80;;;;;;5019158;28;21188;-71
2021/05/24 12:42:15;;;;;;;1.58;0.70;;;21.80;44.60;;;;;;5047712;28;20077;-71
2021/05/24 12:44:41;;;;;;;1.95;0.95;;;21.70;44.30;;;;;;5041547;28;20035;-71
2021/05/24 12:47:18;;;;;;;1.58;0.88;;;21.80;44.50;;;;;;5050268;28;20484;-71
2021/05/24 12:49:48;;;;;;;2.40;1.50;;;21.90;44.40;;;;;;5043437;28;20111;-72
2021/05/24 12:52:16;;;;;;;2.33;1.30;;;22.10;43.50;;;;;;5045582;28;20045;-71
2021/05/24 12:54:51;;;;;;;1.48;0.80;;;22.30;44.00;;;;;;5031371;28;20367;-71
2021/05/24 12:57:19;;;;;;;0.73;0.70;;;22.30;43.10;;;;;;5050270;28;20423;-71
2021/05/24 12:59:54;;;;;;;1.80;0.70;;;22.20;43.80;;;;;;5048918;28;20109;-71